Time;durP1;ratioP1;P1;durP2;ratioP2;P2;SDS_P1;SDS_P2;PMS_P1;PMS_P2;Temp;Humidity;BMP_temperature;BMP_pressure;BME280_temperature;BME280_humidity;BME280_pressure;Samples;Min_cycle;Max_cycle;Signal;HPM_P1;HPM_P2
2023/06/27 00:01:39;;;;;;;10.17;4.57;;;21.80;82.30;;;;;;5046703;28;20112;-64
2023/06/27 00:04:08;;;;;;;10.52;4.60;;;21.90;82.30;;;;;;5067356;28;20028;-65
2023/06/27 00:06:37;;;;;;;7.85;3.90;;;21.70;82.40;;;;;;5064841;28;20025;-63
2023/06/27 00:09:05;;;;;;;8.80;4.40;;;21.80;82.50;;;;;;5062508;28;20028;-63
2023/06/27 00:11:31;;;;;;;7.95;4.25;;;21.50;83.20;;;;;;5064180;28;20035;-64
2023/06/27 00:13:58;;;;;;;12.57;4.73;;;21.40;83.70;;;;;;5048602;28;20039;-63
2023/06/27 00:16:24;;;;;;;7.57;4.60;;;21.40;83.90;;;;;;5064289;28;20078;-64
2023/06/27 00:18:50;;;;;;;;;;;21.20;85.00;;;;;;5061800;28;20442;-64
2023/06/27 00:21:16;;;;;;;10.77;4.50;;;21.30;85.10;;;;;;5065403;28;19962;-63
2023/06/27 00:23:43;;;;;;;11.80;4.55;;;21.30;84.40;;;;;;5065434;28;20415;-63
2023/06/27 00:26:11;;;;;;;9.80;4.15;;;21.40;84.30;;;;;;5062341;28;20024;-64
2023/06/27 00:28:37;;;;;;;7.38;4.38;;;21.50;84.00;;;;;;5065896;28;20051;-64
2023/06/27 00:31:03;;;;;;;9.73;4.10;;;21.60;83.50;;;;;;5058160;28;20400;-64
2023/06/27 00:33:29;;;;;;;9.30;4.85;;;21.50;83.60;;;;;;5062530;28;20110;-64
2023/06/27 00:35:54;;;;;;;12.23;4.57;;;21.30;84.40;;;;;;5066028;28;20125;-63
2023/06/27 00:38:20;;;;;;;10.07;4.27;;;21.40;84.50;;;;;;5064494;28;20036;-63
2023/06/27 00:40:45;;;;;;;11.07;4.37;;;21.20;85.20;;;;;;5066981;28;20545;-63
2023/06/27 00:43:11;;;;;;;7.57;4.10;;;21.10;85.80;;;;;;5066404;28;20028;-63
2023/06/27 00:45:36;;;;;;;8.87;4.27;;;21.20;85.20;;;;;;5063610;28;20025;-64
2023/06/27 00:48:02;;;;;;;7.03;4.00;;;21.20;85.70;;;;;;5067154;28;20108;-63
2023/06/27 00:50:30;;;;;;;7.45;4.32;;;21.30;84.80;;;;;;5064335;28;20024;-64
2023/06/27 00:52:57;;;;;;;15.80;4.97;;;21.30;84.70;;;;;;5059999;28;20135;-64
2023/06/27 00:55:23;;;;;;;8.32;4.38;;;21.10;85.10;;;;;;5063127;28;20063;-64
2023/06/27 00:57:49;;;;;;;13.13;5.00;;;21.10;85.00;;;;;;5067284;28;20399;-64
2023/06/27 01:00:15;;;;;;;5.60;4.00;;;21.20;84.80;;;;;;5049278;28;20033;-64
2023/06/27 01:02:42;;;;;;;9.07;4.15;;;21.10;84.90;;;;;;5067806;28;20029;-64
2023/06/27 01:05:09;;;;;;;8.05;3.75;;;21.00;84.40;;;;;;5056605;28;20041;-64
2023/06/27 01:07:45;;;;;;;;;;;20.80;86.10;;;;;;5075814;28;20150;-64
2023/06/27 01:11:05;;;;;;;7.25;4.18;;;20.70;85.60;;;;;;5086057;28;19905;-64
2023/06/27 01:13:37;;;;;;;8.00;4.03;;;20.90;85.60;;;;;;4977751;28;20049;-63
2023/06/27 01:16:04;;;;;;;12.70;3.80;;;21.00;85.20;;;;;;5049574;28;20036;-63
2023/06/27 01:18:31;;;;;;;7.47;3.65;;;21.00;84.50;;;;;;5066587;28;20107;-63
2023/06/27 01:20:59;;;;;;;9.02;3.60;;;20.90;84.80;;;;;;5063118;28;20036;-63
2023/06/27 01:23:32;;;;;;;10.57;4.13;;;21.00;84.70;;;;;;5065423;28;20064;-63
2023/06/27 01:26:04;;;;;;;6.38;3.92;;;20.80;85.00;;;;;;5066514;28;20020;-63
2023/06/27 01:28:30;;;;;;;6.63;3.33;;;20.80;85.40;;;;;;5048280;28;20032;-63
2023/06/27 01:30:56;;;;;;;8.68;3.75;;;20.60;86.30;;;;;;5066452;28;20464;-64
2023/06/27 01:33:47;;;;;;;8.77;3.70;;;20.80;85.50;;;;;;5066252;28;20032;-63
2023/06/27 01:36:28;;;;;;;12.05;3.63;;;20.80;84.70;;;;;;5065917;28;20037;-64
2023/06/27 01:39:05;;;;;;;8.65;3.67;;;20.70;84.70;;;;;;5066750;28;20169;-64
2023/06/27 01:41:35;;;;;;;8.25;4.05;;;20.70;84.70;;;;;;5067239;28;20038;-64
2023/06/27 01:44:03;;;;;;;7.32;4.07;;;20.70;84.90;;;;;;5067117;28;20024;-64
2023/06/27 01:46:30;;;;;;;6.15;3.72;;;20.70;84.70;;;;;;5067259;28;20100;-64
2023/06/27 01:48:58;;;;;;;6.93;3.42;;;20.70;84.70;;;;;;5071100;28;20025;-64
2023/06/27 01:51:23;;;;;;;9.60;3.67;;;20.40;84.90;;;;;;5070796;28;20033;-64
2023/06/27 01:53:49;;;;;;;10.57;3.50;;;20.50;84.70;;;;;;5070621;28;20056;-64
2023/06/27 01:56:15;;;;;;;6.03;3.17;;;20.50;84.30;;;;;;5070169;28;20039;-63
2023/06/27 01:58:40;;;;;;;6.93;3.20;;;20.50;84.20;;;;;;5070441;28;20286;-63
2023/06/27 02:01:06;;;;;;;9.60;3.53;;;20.50;84.50;;;;;;5054830;28;20035;-64
2023/06/27 02:03:33;;;;;;;6.45;4.38;;;20.50;85.00;;;;;;5070304;28;20078;-63
2023/06/27 02:05:58;;;;;;;12.63;3.50;;;20.40;84.80;;;;;;5070293;28;20036;-63
2023/06/27 02:08:24;;;;;;;7.20;3.10;;;20.40;84.80;;;;;;5070401;28;20028;-64
2023/06/27 02:10:50;;;;;;;13.03;4.20;;;20.40;84.60;;;;;;5069989;28;20063;-64
2023/06/27 02:13:15;;;;;;;9.33;3.40;;;20.30;84.50;;;;;;5070017;28;20507;-64
2023/06/27 02:15:41;;;;;;;6.53;3.30;;;20.30;84.30;;;;;;5070301;28;20059;-65
2023/06/27 02:18:06;;;;;;;11.17;3.13;;;20.20;85.10;;;;;;5070631;28;20073;-65
2023/06/27 02:20:32;;;;;;;8.23;4.00;;;20.10;84.70;;;;;;5070534;28;20024;-65
2023/06/27 02:22:57;;;;;;;6.20;3.27;;;20.10;84.90;;;;;;5070545;28;20025;-64
2023/06/27 02:25:23;;;;;;;7.93;2.83;;;20.20;85.30;;;;;;5070298;28;20039;-64
2023/06/27 02:27:49;;;;;;;8.05;3.85;;;20.20;85.70;;;;;;5069990;28;20504;-64
2023/06/27 02:30:15;;;;;;;8.73;3.83;;;20.10;85.20;;;;;;5070563;28;20115;-63
2023/06/27 02:32:40;;;;;;;10.27;2.93;;;20.00;86.20;;;;;;5070178;28;20044;-64
2023/06/27 02:35:06;;;;;;;8.43;3.43;;;20.00;85.60;;;;;;5070723;28;20060;-65
2023/06/27 02:37:32;;;;;;;7.38;3.00;;;20.00;85.80;;;;;;5069917;28;20029;-65
2023/06/27 02:39:57;;;;;;;6.47;3.40;;;20.10;85.00;;;;;;5069539;28;20079;-64
2023/06/27 02:42:23;;;;;;;11.20;3.40;;;20.00;85.80;;;;;;5069722;28;20504;-65
2023/06/27 02:44:49;;;;;;;13.97;3.07;;;20.00;85.50;;;;;;5069865;28;20100;-65
2023/06/27 02:47:15;;;;;;;5.43;3.17;;;19.80;85.80;;;;;;5069631;28;20152;-65
2023/06/27 02:49:42;;;;;;;9.05;3.05;;;19.90;85.30;;;;;;5068248;28;20247;-64
2023/06/27 02:52:08;;;;;;;6.65;3.20;;;19.80;86.10;;;;;;5069749;28;20146;-64
2023/06/27 02:54:33;;;;;;;7.47;3.40;;;19.70;86.80;;;;;;5069712;28;20135;-64
2023/06/27 02:56:59;;;;;;;8.02;3.10;;;19.70;86.10;;;;;;5068648;28;20111;-65
2023/06/27 02:59:25;;;;;;;8.93;3.00;;;19.60;87.00;;;;;;5068973;28;20496;-65
2023/06/27 03:01:50;;;;;;;7.17;3.17;;;19.60;86.90;;;;;;5069903;28;20032;-65
2023/06/27 03:04:23;;;;;;;7.77;4.07;;;19.50;87.90;;;;;;5069613;28;20103;-65
2023/06/27 03:06:49;;;;;;;11.57;3.33;;;19.50;87.30;;;;;;5069689;28;20039;-65
2023/06/27 03:09:17;;;;;;;12.25;3.05;;;19.50;87.60;;;;;;5069576;28;20048;-65
2023/06/27 03:11:43;;;;;;;8.60;2.83;;;19.60;87.10;;;;;;5070168;28;20455;-65
2023/06/27 03:14:09;;;;;;;8.53;3.03;;;19.60;86.90;;;;;;5069680;28;20047;-65
2023/06/27 03:16:34;;;;;;;8.77;3.40;;;19.50;86.50;;;;;;5069052;28;20028;-66
2023/06/27 03:19:00;;;;;;;5.07;3.17;;;19.40;87.20;;;;;;5068762;28;20086;-65
2023/06/27 03:21:26;;;;;;;4.70;2.77;;;19.40;87.30;;;;;;5068830;28;20060;-65
2023/06/27 03:23:51;;;;;;;6.13;2.90;;;19.40;88.30;;;;;;5070581;28;20488;-65
2023/06/27 03:26:17;;;;;;;9.00;3.70;;;19.50;88.50;;;;;;5068030;28;20040;-65
2023/06/27 03:28:42;;;;;;;10.67;3.13;;;19.40;88.30;;;;;;5067743;28;20032;-64
2023/06/27 03:31:08;;;;;;;4.93;2.73;;;19.50;86.90;;;;;;5063699;28;20031;-64
2023/06/27 03:33:34;;;;;;;10.70;2.87;;;19.50;86.60;;;;;;5055554;28;20089;-64
2023/06/27 03:35:59;;;;;;;12.53;4.60;;;19.30;87.80;;;;;;5058959;28;20094;-65
2023/06/27 03:38:25;;;;;;;16.93;3.17;;;19.20;88.40;;;;;;5054450;28;20869;-65
2023/06/27 03:40:51;;;;;;;11.70;3.33;;;19.30;88.30;;;;;;5052100;28;20040;-65
2023/06/27 03:43:16;;;;;;;17.03;2.80;;;19.10;89.00;;;;;;5059216;28;20585;-65
2023/06/27 03:45:42;;;;;;;8.77;2.93;;;19.20;89.60;;;;;;5057283;28;20032;-65
2023/06/27 03:48:08;;;;;;;6.07;3.07;;;19.20;88.90;;;;;;5039316;28;20039;-65
2023/06/27 03:50:34;;;;;;;7.97;3.30;;;19.20;89.10;;;;;;5050981;28;20029;-66
2023/06/27 03:53:02;;;;;;;12.90;3.47;;;18.90;89.80;;;;;;5053271;28;20182;-65
2023/06/27 03:55:28;;;;;;;5.40;3.13;;;19.00;89.70;;;;;;5060352;28;20108;-65
2023/06/27 03:57:53;;;;;;;9.47;3.27;;;19.10;90.10;;;;;;5056671;28;20051;-65
2023/06/27 04:00:19;;;;;;;9.00;2.87;;;18.90;90.40;;;;;;5052508;28;20029;-65
2023/06/27 04:02:45;;;;;;;7.97;2.87;;;19.00;90.50;;;;;;5069721;28;20056;-65
2023/06/27 04:05:10;;;;;;;7.73;3.30;;;18.90;90.30;;;;;;5056529;28;20040;-65
2023/06/27 04:07:36;;;;;;;15.07;3.07;;;18.90;90.50;;;;;;5060222;28;20032;-65
2023/06/27 04:10:02;;;;;;;13.93;3.60;;;18.80;90.40;;;;;;5056750;28;20104;-65
2023/06/27 04:12:28;;;;;;;6.47;3.28;;;18.90;90.50;;;;;;5056886;28;20460;-65
2023/06/27 04:14:53;;;;;;;7.50;3.27;;;18.60;90.90;;;;;;5050929;28;20033;-65
2023/06/27 04:17:19;;;;;;;10.93;3.87;;;18.80;90.80;;;;;;5057952;28;20030;-65
2023/06/27 04:19:45;;;;;;;10.00;3.20;;;19.00;90.40;;;;;;5057663;28;20036;-65
2023/06/27 04:22:10;;;;;;;10.18;2.80;;;18.90;90.80;;;;;;5056746;28;20526;-65
2023/06/27 04:24:36;;;;;;;7.43;3.73;;;18.70;91.00;;;;;;5061190;28;20047;-65
2023/06/27 04:27:01;;;;;;;9.77;3.03;;;18.90;90.90;;;;;;5054944;28;20436;-65
2023/06/27 04:29:27;;;;;;;8.60;3.73;;;18.90;90.70;;;;;;5067035;28;20100;-64
2023/06/27 04:31:53;;;;;;;9.20;3.97;;;18.80;91.20;;;;;;5060774;28;20411;-65
2023/06/27 04:34:18;;;;;;;8.00;3.37;;;18.70;91.60;;;;;;5060223;28;20147;-65
2023/06/27 04:36:44;;;;;;;11.07;3.27;;;18.80;91.20;;;;;;5056070;28;20025;-64
2023/06/27 04:39:09;;;;;;;7.17;3.37;;;18.90;90.50;;;;;;5056512;28;20033;-64
2023/06/27 04:41:35;;;;;;;12.47;3.13;;;18.50;91.80;;;;;;5067122;28;20473;-64
2023/06/27 04:44:01;;;;;;;6.43;3.10;;;18.50;92.10;;;;;;5057601;28;20111;-64
2023/06/27 04:46:28;;;;;;;9.83;3.17;;;18.70;91.30;;;;;;5057691;28;20124;-65
2023/06/27 04:48:57;;;;;;;8.88;3.65;;;18.70;91.70;;;;;;5060548;28;20051;-65
2023/06/27 04:51:27;;;;;;;14.20;3.60;;;18.80;91.30;;;;;;5053202;28;20018;-65
2023/06/27 04:53:53;;;;;;;11.35;3.55;;;19.00;90.70;;;;;;5038531;28;20040;-65
2023/06/27 04:56:18;;;;;;;9.83;3.73;;;18.80;91.20;;;;;;5055686;28;20032;-65
2023/06/27 04:58:44;;;;;;;8.87;3.30;;;19.10;90.70;;;;;;5055572;28;20123;-65
2023/06/27 05:01:10;;;;;;;10.53;3.53;;;19.00;90.80;;;;;;5052039;28;20021;-65
2023/06/27 05:03:37;;;;;;;14.50;4.13;;;19.20;90.60;;;;;;5049968;28;20086;-65
2023/06/27 05:06:04;;;;;;;25.08;4.03;;;19.10;90.90;;;;;;5058807;28;20099;-65
2023/06/27 05:08:30;;;;;;;6.32;3.28;;;19.00;90.80;;;;;;5047368;28;20059;-64
2023/06/27 05:10:56;;;;;;;;;;;19.20;90.70;;;;;;5061253;28;20051;-64
2023/06/27 05:13:22;;;;;;;11.95;3.45;;;19.30;89.90;;;;;;5059543;28;20380;-65
2023/06/27 05:15:48;;;;;;;11.70;3.63;;;19.20;90.30;;;;;;5060803;28;20453;-64
2023/06/27 05:18:16;;;;;;;15.15;3.38;;;19.30;90.10;;;;;;5057916;28;20044;-65
2023/06/27 05:20:43;;;;;;;14.68;3.65;;;19.50;89.80;;;;;;5059604;28;20094;-65
2023/06/27 05:23:09;;;;;;;9.23;3.65;;;19.60;89.70;;;;;;5053719;28;20029;-65
2023/06/27 05:25:35;;;;;;;11.65;3.70;;;19.60;89.50;;;;;;5060047;28;20082;-65
2023/06/27 05:28:01;;;;;;;12.68;4.35;;;19.50;90.20;;;;;;5058940;28;20081;-65
2023/06/27 05:30:30;;;;;;;12.48;3.90;;;19.70;90.00;;;;;;5056082;28;20367;-65
2023/06/27 05:32:56;;;;;;;8.82;3.35;;;19.20;90.80;;;;;;5065652;28;20107;-65
2023/06/27 05:35:22;;;;;;;5.70;3.50;;;19.80;90.00;;;;;;5059752;28;20488;-65
2023/06/27 05:37:48;;;;;;;12.10;3.42;;;20.00;87.90;;;;;;5057834;28;20039;-65
2023/06/27 05:40:13;;;;;;;8.97;3.60;;;20.00;87.70;;;;;;5052668;28;20045;-65
2023/06/27 05:42:42;;;;;;;13.10;3.47;;;20.50;86.00;;;;;;5057521;28;20032;-64
2023/06/27 05:45:08;;;;;;;10.50;3.67;;;20.70;84.80;;;;;;5056472;28;20079;-65
2023/06/27 05:47:34;;;;;;;14.32;3.35;;;20.70;84.70;;;;;;5057948;28;20035;-65
2023/06/27 05:50:00;;;;;;;13.03;3.50;;;20.90;84.10;;;;;;5061540;28;20033;-65
2023/06/27 05:52:28;;;;;;;9.38;4.43;;;21.20;83.10;;;;;;5057714;28;20074;-65
2023/06/27 05:54:54;;;;;;;11.38;3.60;;;21.40;82.70;;;;;;5059553;28;20412;-65
2023/06/27 05:57:20;;;;;;;8.90;3.50;;;21.50;81.80;;;;;;5060660;28;20074;-65
2023/06/27 05:59:46;;;;;;;10.10;3.88;;;21.80;80.50;;;;;;5054013;28;20033;-65
2023/06/27 06:02:11;;;;;;;8.95;3.58;;;22.50;79.60;;;;;;5065813;28;20087;-65
2023/06/27 06:04:37;;;;;;;12.48;3.30;;;22.80;77.60;;;;;;5054378;28;20028;-65
2023/06/27 06:07:03;;;;;;;7.50;3.30;;;23.20;75.70;;;;;;5057770;28;20042;-65
2023/06/27 06:09:30;;;;;;;5.53;3.17;;;23.70;75.00;;;;;;5062585;28;20443;-64
2023/06/27 06:11:56;;;;;;;7.88;3.15;;;23.70;73.90;;;;;;5055762;28;20087;-65
2023/06/27 06:14:21;;;;;;;6.07;3.38;;;23.90;73.30;;;;;;5062506;28;20472;-65
2023/06/27 06:16:47;;;;;;;8.70;3.33;;;24.20;71.70;;;;;;5058247;28;20115;-64
2023/06/27 06:19:13;;;;;;;5.88;2.40;;;24.20;71.60;;;;;;5060492;28;20040;-65
2023/06/27 06:21:39;;;;;;;7.43;3.20;;;24.50;72.10;;;;;;5058924;28;20036;-64
2023/06/27 06:24:04;;;;;;;8.83;3.43;;;24.60;71.70;;;;;;5058461;28;20147;-64
2023/06/27 06:26:30;;;;;;;8.35;3.47;;;25.30;70.40;;;;;;5054042;28;20276;-64
2023/06/27 06:28:56;;;;;;;13.75;3.50;;;25.60;69.10;;;;;;5059785;28;20451;-64
2023/06/27 06:31:23;;;;;;;12.37;3.63;;;25.80;68.50;;;;;;5060554;28;20082;-65
2023/06/27 06:33:49;;;;;;;12.15;3.35;;;25.50;67.90;;;;;;5042970;28;20303;-65
2023/06/27 06:36:15;;;;;;;10.88;3.38;;;26.30;68.70;;;;;;5061232;28;20355;-64
2023/06/27 06:38:41;;;;;;;10.43;3.20;;;26.20;66.80;;;;;;5043905;28;20059;-65
2023/06/27 06:41:07;;;;;;;12.10;3.55;;;26.20;66.80;;;;;;5061365;28;20067;-65
2023/06/27 06:43:32;;;;;;;6.53;3.20;;;26.40;66.10;;;;;;5061450;28;20528;-64
2023/06/27 06:45:59;;;;;;;8.80;3.40;;;25.70;68.10;;;;;;5066671;28;20070;-64
2023/06/27 06:48:24;;;;;;;;;;;25.20;68.80;;;;;;5053266;28;20413;-65
2023/06/27 06:50:51;;;;;;;13.13;3.70;;;24.80;69.80;;;;;;5060480;28;19919;-64
2023/06/27 06:53:20;;;;;;;10.48;4.05;;;25.60;68.60;;;;;;5062502;28;20491;-64
2023/06/27 06:55:46;;;;;;;6.72;2.75;;;26.10;65.80;;;;;;5059365;28;20029;-64
2023/06/27 06:58:12;;;;;;;7.00;2.60;;;27.10;65.00;;;;;;5059958;28;20029;-64
2023/06/27 07:00:38;;;;;;;5.47;3.05;;;28.50;62.80;;;;;;5057372;28;20037;-64
2023/06/27 07:03:04;;;;;;;6.80;2.92;;;28.60;61.30;;;;;;5060098;28;20040;-64
2023/06/27 07:05:30;;;;;;;9.65;2.85;;;28.10;61.40;;;;;;5061451;28;20436;-64
2023/06/27 07:07:56;;;;;;;6.63;2.60;;;27.70;62.80;;;;;;5063528;28;20107;-64
2023/06/27 07:10:21;;;;;;;9.48;3.30;;;26.10;64.00;;;;;;5061750;28;20037;-64
2023/06/27 07:12:47;;;;;;;7.75;3.22;;;25.70;66.90;;;;;;5058362;28;20072;-65
2023/06/27 07:15:14;;;;;;;10.75;3.33;;;26.00;66.50;;;;;;5061397;28;20416;-64
2023/06/27 07:17:39;;;;;;;6.10;2.60;;;25.40;67.70;;;;;;5062911;28;20032;-64
2023/06/27 07:20:07;;;;;;;9.00;2.90;;;25.10;68.60;;;;;;5061548;28;20025;-64
2023/06/27 07:22:32;;;;;;;9.98;2.97;;;24.50;69.70;;;;;;5058913;28;20048;-64
2023/06/27 07:24:58;;;;;;;9.65;3.47;;;24.00;71.90;;;;;;5062851;28;20504;-64
2023/06/27 07:27:23;;;;;;;9.23;2.73;;;24.00;71.50;;;;;;5061588;28;20132;-64
2023/06/27 07:29:49;;;;;;;7.53;3.23;;;24.10;71.90;;;;;;5059138;28;20283;-64
2023/06/27 07:32:14;;;;;;;9.23;3.22;;;24.20;71.30;;;;;;5064825;28;20502;-64
2023/06/27 07:34:40;;;;;;;6.33;2.90;;;24.20;71.50;;;;;;5060300;28;20037;-65
2023/06/27 07:37:06;;;;;;;5.83;2.70;;;24.00;71.80;;;;;;5061632;28;20310;-65
2023/06/27 07:39:32;;;;;;;5.20;2.42;;;23.60;74.20;;;;;;5057760;28;20519;-64
2023/06/27 07:41:58;;;;;;;10.98;3.22;;;23.70;72.90;;;;;;5058870;28;20020;-64
2023/06/27 07:44:24;;;;;;;9.02;2.95;;;23.40;74.70;;;;;;5056769;28;20500;-65
2023/06/27 07:46:50;;;;;;;;;;;23.40;74.60;;;;;;5060521;28;20025;-64
2023/06/27 07:49:16;;;;;;;12.73;3.50;;;23.80;73.70;;;;;;5063807;28;19918;-65
2023/06/27 07:51:42;;;;;;;7.00;2.67;;;23.80;73.50;;;;;;5061074;28;20033;-64
2023/06/27 07:54:09;;;;;;;10.10;3.03;;;23.80;72.90;;;;;;5064111;28;20044;-63
2023/06/27 07:56:35;;;;;;;5.60;3.03;;;23.90;72.20;;;;;;5063818;28;20033;-64
2023/06/27 07:59:01;;;;;;;8.82;3.00;;;24.10;71.70;;;;;;5061859;28;20140;-63
2023/06/27 08:01:26;;;;;;;5.53;2.65;;;24.20;72.00;;;;;;5060291;28;20036;-65
2023/06/27 08:03:52;;;;;;;17.33;3.13;;;23.80;72.10;;;;;;5061279;28;20032;-64
2023/06/27 08:06:17;;;;;;;13.30;3.60;;;23.80;72.50;;;;;;5057939;28;20077;-64
2023/06/27 08:08:43;;;;;;;15.40;3.37;;;24.00;72.30;;;;;;5060588;28;20745;-64
2023/06/27 08:11:09;;;;;;;7.00;2.50;;;24.30;71.10;;;;;;5063616;28;20566;-64
2023/06/27 08:13:38;;;;;;;4.93;2.67;;;24.20;72.20;;;;;;5054457;28;20064;-64
2023/06/27 08:16:04;;;;;;;8.02;2.95;;;24.20;71.90;;;;;;5060925;28;20507;-65
2023/06/27 08:18:30;;;;;;;7.15;3.03;;;24.80;69.40;;;;;;5057441;28;20133;-64
2023/06/27 08:20:55;;;;;;;5.33;2.67;;;26.30;66.80;;;;;;5047975;28;20037;-64
2023/06/27 08:23:21;;;;;;;6.30;2.83;;;28.70;63.00;;;;;;5059475;28;20165;-65
2023/06/27 08:25:47;;;;;;;8.35;2.72;;;29.40;59.90;;;;;;5057867;28;20040;-64
2023/06/27 08:28:13;;;;;;;;;;;29.50;58.90;;;;;;5064697;28;20048;-64
2023/06/27 08:30:39;;;;;;;10.88;3.15;;;30.50;58.60;;;;;;5060054;28;19912;-64
2023/06/27 08:33:05;;;;;;;9.60;2.40;;;30.10;57.80;;;;;;5063128;28;20043;-64
2023/06/27 08:35:31;;;;;;;11.00;2.80;;;28.80;60.30;;;;;;5057528;28;20032;-65
2023/06/27 08:37:56;;;;;;;8.23;2.95;;;27.80;61.90;;;;;;5060388;28;20048;-65
2023/06/27 08:40:26;;;;;;;8.05;2.47;;;28.20;61.60;;;;;;5056398;28;20389;-65
2023/06/27 08:42:52;;;;;;;10.15;2.58;;;27.70;59.70;;;;;;5059101;28;20836;-66
2023/06/27 08:45:18;;;;;;;10.35;2.67;;;27.10;60.90;;;;;;5058254;28;20528;-65
2023/06/27 08:47:46;;;;;;;4.90;2.25;;;27.70;60.20;;;;;;5062828;28;20041;-64
2023/06/27 08:50:13;;;;;;;11.07;2.50;;;27.40;60.90;;;;;;5059608;28;20115;-65
2023/06/27 08:52:51;;;;;;;8.00;2.72;;;26.80;63.50;;;;;;5044070;28;20035;-65
2023/06/27 08:55:26;;;;;;;13.13;3.08;;;26.90;63.90;;;;;;5059275;28;20400;-65
2023/06/27 08:57:55;;;;;;;8.02;2.78;;;27.10;64.50;;;;;;5058124;28;20112;-66
2023/06/27 09:00:24;;;;;;;11.18;2.63;;;29.10;61.60;;;;;;5057532;28;20504;-66
2023/06/27 09:02:50;;;;;;;7.40;2.97;;;31.30;56.90;;;;;;5036737;28;20029;-66
2023/06/27 09:05:16;;;;;;;13.15;2.50;;;33.00;54.10;;;;;;5058853;28;20028;-65
2023/06/27 09:07:42;;;;;;;;;;;32.50;51.60;;;;;;5055737;28;20522;-65
2023/06/27 09:10:09;;;;;;;7.50;2.72;;;32.30;52.30;;;;;;5059277;28;19998;-66
2023/06/27 09:12:37;;;;;;;12.48;3.00;;;32.30;52.50;;;;;;5065077;28;20381;-65
2023/06/27 09:15:04;;;;;;;6.82;2.75;;;32.80;50.30;;;;;;5058087;28;20037;-66
2023/06/27 09:17:29;;;;;;;8.30;2.58;;;32.40;51.00;;;;;;5057468;28;20025;-66
2023/06/27 09:19:55;;;;;;;8.18;2.88;;;34.10;50.40;;;;;;5057313;28;20549;-66
2023/06/27 09:22:23;;;;;;;;;;;34.00;49.50;;;;;;5058618;28;20029;-65
2023/06/27 09:24:49;;;;;;;6.22;2.50;;;34.70;49.60;;;;;;5054889;28;20180;-66
2023/06/27 09:27:35;;;;;;;;;;;34.80;48.90;;;;;;5058736;28;20032;-68
2023/06/27 09:30:02;;;;;;;14.27;3.35;;;34.70;49.50;;;;;;5052406;28;19988;-67
2023/06/27 09:32:28;;;;;;;9.70;2.38;;;35.60;48.10;;;;;;5061456;28;20031;-67
2023/06/27 09:34:53;;;;;;;;;;;35.50;48.30;;;;;;5045187;28;20036;-66
2023/06/27 09:37:30;;;;;;;7.65;2.67;;;35.60;47.30;;;;;;5058604;28;20375;-68
2023/06/27 09:39:55;;;;;;;;;;;35.70;48.40;;;;;;5062248;28;20033;-67
2023/06/27 09:42:21;;;;;;;5.63;2.72;;;35.80;48.30;;;;;;5055991;28;19916;-67
2023/06/27 09:44:46;;;;;;;10.85;2.80;;;36.30;48.00;;;;;;5060127;28;20395;-68
2023/06/27 09:47:12;;;;;;;7.00;2.75;;;35.90;47.10;;;;;;5051965;28;20409;-70
2023/06/27 09:49:43;;;;;;;20.88;3.35;;;36.20;46.50;;;;;;5061013;28;20336;-67
2023/06/27 09:52:13;;;;;;;15.13;3.22;;;35.00;48.10;;;;;;5060512;28;20764;-71
2023/06/27 09:54:43;;;;;;;9.05;2.67;;;35.40;47.20;;;;;;5042276;28;20060;-67
2023/06/27 09:57:13;;;;;;;9.00;3.42;;;35.20;47.20;;;;;;5056864;28;20033;-66
2023/06/27 09:59:39;;;;;;;12.52;2.45;;;36.50;45.70;;;;;;5056772;28;20033;-67
2023/06/27 10:02:14;;;;;;;6.95;3.22;;;37.00;47.60;;;;;;5054492;28;20116;-67
2023/06/27 10:04:40;;;;;;;5.15;2.30;;;36.70;46.60;;;;;;5061305;28;20035;-67
2023/06/27 10:07:08;;;;;;;9.85;2.38;;;37.20;46.60;;;;;;5055150;28;20021;-67
2023/06/27 10:09:37;;;;;;;7.18;3.00;;;36.60;45.40;;;;;;5066655;28;20063;-70
2023/06/27 10:12:03;;;;;;;7.07;2.20;;;37.20;46.40;;;;;;5059888;28;20135;-66
2023/06/27 10:14:30;;;;;;;8.52;2.40;;;35.80;46.00;;;;;;5059644;28;20036;-66
2023/06/27 10:16:56;;;;;;;7.40;2.38;;;36.50;46.80;;;;;;5060293;28;20025;-66
2023/06/27 10:19:22;;;;;;;11.40;2.50;;;36.20;45.70;;;;;;5061868;28;20036;-66
2023/06/27 10:21:49;;;;;;;7.95;2.40;;;35.20;45.60;;;;;;5063880;28;20082;-65
2023/06/27 10:24:15;;;;;;;9.10;2.67;;;33.30;47.10;;;;;;5065736;28;20028;-66
2023/06/27 10:26:50;;;;;;;6.35;2.13;;;31.50;50.10;;;;;;5060376;28;20025;-67
2023/06/27 10:29:16;;;;;;;8.82;2.45;;;30.50;55.20;;;;;;5062733;28;20028;-68
2023/06/27 10:31:45;;;;;;;;;;;30.40;53.40;;;;;;5058883;28;20086;-66
2023/06/27 10:34:18;;;;;;;11.57;2.28;;;29.70;54.80;;;;;;5063011;28;19920;-67
2023/06/27 10:36:56;;;;;;;6.45;2.45;;;29.40;56.10;;;;;;5062578;28;20090;-67
2023/06/27 10:39:25;;;;;;;9.25;2.55;;;29.20;55.70;;;;;;5062323;28;20091;-68
2023/06/27 10:42:01;;;;;;;8.57;2.35;;;29.10;55.30;;;;;;5060550;28;20112;-66
2023/06/27 10:44:27;;;;;;;20.08;2.70;;;29.10;56.40;;;;;;5060369;28;20033;-65
2023/06/27 10:47:11;;;;;;;;;;;29.20;55.60;;;;;;5067881;28;20025;-65
2023/06/27 10:49:37;;;;;;;9.68;2.60;;;29.30;55.80;;;;;;5066449;28;19912;-65
2023/06/27 10:52:02;;;;;;;10.07;2.13;;;28.60;55.20;;;;;;5058166;28;20082;-65
2023/06/27 10:54:28;;;;;;;7.93;2.28;;;28.10;58.10;;;;;;5061842;28;20044;-65
2023/06/27 10:56:54;;;;;;;9.88;2.28;;;28.50;56.30;;;;;;5065468;28;20039;-65
2023/06/27 10:59:23;;;;;;;7.40;2.40;;;28.80;56.90;;;;;;5056727;28;20029;-65
2023/06/27 11:02:04;;;;;;;18.30;2.50;;;29.10;56.20;;;;;;5061949;28;20597;-67
2023/06/27 11:04:43;;;;;;;32.10;4.53;;;29.10;58.50;;;;;;5059548;28;20059;-66
2023/06/27 11:07:17;;;;;;;16.77;2.83;;;29.40;56.80;;;;;;5058945;28;20052;-66
2023/06/27 11:09:54;;;;;;;22.58;3.65;;;29.10;55.20;;;;;;5047215;28;20130;-66
2023/06/27 11:12:21;;;;;;;39.30;4.72;;;29.10;58.20;;;;;;5058315;28;20094;-66
2023/06/27 11:14:48;;;;;;;25.27;4.72;;;28.70;58.20;;;;;;5062496;28;20438;-67
2023/06/27 11:17:17;;;;;;;21.73;4.75;;;28.80;59.90;;;;;;5065221;28;20585;-66
2023/06/27 11:19:42;;;;;;;18.67;5.32;;;28.80;61.40;;;;;;5060741;28;20033;-66
2023/06/27 11:22:09;;;;;;;22.23;4.07;;;28.30;59.30;;;;;;5060276;28;20191;-66
2023/06/27 11:24:35;;;;;;;;;;;28.90;59.60;;;;;;5066862;28;20029;-65
2023/06/27 11:27:06;;;;;;;321.45;63.97;;;29.10;59.50;;;;;;5064015;28;19908;-72
2023/06/27 11:29:33;;;;;;;361.73;72.85;;;29.00;57.00;;;;;;5061986;28;20400;-67
2023/06/27 11:31:59;;;;;;;333.92;64.97;;;28.90;56.90;;;;;;5057446;28;20113;-66
2023/06/27 11:34:25;;;;;;;;;;;28.90;57.00;;;;;;5059045;28;20033;-67
2023/06/27 11:36:52;;;;;;;250.75;54.15;;;29.00;59.30;;;;;;5059875;28;19962;-66
2023/06/27 11:39:18;;;;;;;113.18;23.50;;;29.10;57.90;;;;;;5060770;28;20060;-67
2023/06/27 11:41:45;;;;;;;75.13;16.50;;;29.10;57.60;;;;;;5060058;28;20068;-66
2023/06/27 11:44:13;;;;;;;13.18;4.07;;;28.80;57.10;;;;;;5060969;28;20123;-67
2023/06/27 11:46:49;;;;;;;21.85;3.88;;;28.60;58.10;;;;;;5061566;28;20115;-67
2023/06/27 11:49:15;;;;;;;13.80;3.27;;;28.90;56.80;;;;;;5052790;28;20442;-69
2023/06/27 11:51:41;;;;;;;20.08;3.20;;;28.60;57.90;;;;;;5062252;28;20025;-67
2023/06/27 11:54:10;;;;;;;7.13;2.80;;;28.70;56.40;;;;;;5062983;28;20052;-68
2023/06/27 11:56:38;;;;;;;11.65;3.10;;;28.70;58.70;;;;;;5056989;28;20501;-68
2023/06/27 11:59:04;;;;;;;12.82;4.00;;;28.50;58.20;;;;;;5061894;28;20123;-69
2023/06/27 12:01:33;;;;;;;;;;;28.40;59.00;;;;;;5062571;28;20926;-69
2023/06/27 12:03:59;;;;;;;5.80;2.10;;;28.60;58.40;;;;;;5063169;28;20030;-69
2023/06/27 12:06:28;;;;;;;;;;;28.30;57.30;;;;;;5060764;28;20055;-68
2023/06/27 12:08:55;;;;;;;9.13;2.15;;;28.40;58.10;;;;;;5057409;28;19923;-67
2023/06/27 12:11:34;;;;;;;9.02;2.78;;;28.50;57.10;;;;;;5060985;28;20087;-67
2023/06/27 12:14:03;;;;;;;8.50;2.60;;;28.80;58.70;;;;;;5057056;28;20050;-69
2023/06/27 12:16:33;;;;;;;10.27;3.00;;;29.10;56.60;;;;;;5060000;28;20024;-69
2023/06/27 12:19:08;;;;;;;5.90;2.53;;;28.80;57.10;;;;;;5064888;28;20034;-68
2023/06/27 12:21:34;;;;;;;13.13;2.78;;;28.70;58.50;;;;;;5063566;28;20029;-68
2023/06/27 12:24:00;;;;;;;10.80;2.25;;;28.50;57.40;;;;;;5055804;28;20032;-68
2023/06/27 12:26:26;;;;;;;10.68;2.33;;;28.40;59.50;;;;;;5057281;28;20083;-68
2023/06/27 12:28:59;;;;;;;7.80;2.65;;;28.10;58.50;;;;;;5041945;28;20623;-69
2023/06/27 12:31:25;;;;;;;5.72;2.55;;;28.30;58.40;;;;;;5063216;28;20027;-69
2023/06/27 12:33:51;;;;;;;6.55;2.30;;;28.40;60.50;;;;;;5062459;28;20045;-69
2023/06/27 12:36:22;;;;;;;5.78;2.58;;;28.60;58.40;;;;;;5057540;28;20496;-69
2023/06/27 12:38:49;;;;;;;7.65;2.28;;;28.40;57.50;;;;;;5059268;28;20040;-70
2023/06/27 12:41:16;;;;;;;6.82;2.78;;;28.30;57.20;;;;;;5059688;28;20020;-69
2023/06/27 12:43:42;;;;;;;8.80;2.50;;;28.40;56.30;;;;;;5059983;28;20071;-69
2023/06/27 12:46:08;;;;;;;7.95;2.65;;;28.50;59.00;;;;;;5058105;28;20021;-69
2023/06/27 12:48:34;;;;;;;6.82;2.40;;;28.40;57.30;;;;;;5059854;28;20454;-69